Tiempo atmosférico en la estación meteorológica de Sos del Rey Católico, Zaragoza (630 m.)



Fecha
DESCASC
Temp. máxima en grados centígrados (hora)
DESCASC
Temp. mínima en grados centígrados (hora)
DESCASC
Temp. media en grados centígrados
DESCASC
Racha de viento máxima en m/sg (hora)
DESCASC
Velocidad máxima media en intervalos de 10 minutos(hora)
DESCASC
Precipitaciones diarias en mm
DESCASC
Precipitaciones de 00:00 a 06:00 en mm
DESCASC
Precipitaciones de 06:00 a 12:00 en mm
DESCASC
Precipitaciones de 12:00 a 18:00 en mm
DESCASC
Precipitaciones de 18:00 a 24:00 en mm
DESCASC
13-06-2019 24.5 (17:10) 9.8 (01:10) 17.2 24.44 (19:40) 8.33 (23:00) 0 0 0 0 0
12-06-2019 20.8 (18:50) 4.1 (06:00) 12.4 8.61 (14:40) 3.61 (14:10) 0 0 0 0 0
11-06-2019 15.1 (16:40) 7.7 (06:20) 11.4 11.11 (15:20) 6.11 (15:10) 1.6 1.5 0.1 0 0
10-06-2019 16.6 (13:10) 10.1 (05:50) 13.4 12.5 (17:50) 6.67 (03:30) 0 0 0 0 0
09-06-2019 25.9 (16:50) 12.2 (00:00) 19 12.22 (21:30) 6.11 (18:40) 0 0 0 0 0
08-06-2019 22.9 (17:00) 4.6 (00:00) 13.7 11.11 (23:10) 5.28 (21:30) 0 0 0 0 0
07-06-2019 19 (18:20) 9.7 (00:00) 14.3 26.11 (00:40) 9.44 (01:00) 0 0 0 0 0
06-06-2019 21.6 (17:40) 7.1 (00:00) 14.4 17.5 (21:20) 8.89 (21:20) 0 0 0 0 0
05-06-2019 14.2 (18:00) 8.7 (00:00) 11.4 10.56 (13:20) 5.56 (09:30) 23.8 5.2 18.6 0 0
04-06-2019 28.5 (17:00) 12.2 (00:00) 20.3 15.83 (00:50) 8.33 (00:20) 4.2 0 0 0 4.2
03-06-2019 28.9 (16:50) 16.4 (00:00) 22.6 13.61 (23:50) 7.22 (23:10) 0 0 0 0 0
02-06-2019 30 (18:10) 13.6 (00:00) 21.8 8.89 (23:59) 4.72 (23:59) 1.6 0 0 0 1.6
01-06-2019 28.8 (17:40) 12 (00:00) 20.4 6.11 (16:10) 3.33 (22:20) 0 0 0 0 0
31-05-2019 27 (18:00) 9.7 (00:00) 18.3 6.67 (17:20) 3.06 (13:00) 0 0 0 0 0
30-05-2019 26.2 (16:40) 7.3 (00:00) 16.8 10.28 (21:00) 5.28 (19:00) 0 0 0 0 0
29-05-2019 16.7 (18:30) 8.6 (00:00) 12.7 13.61 (14:20) 7.5 (14:00) 0 0 0 0 0
28-05-2019 -- (--) -- (--) -- -- (--) -- (--) -- -- -- 0 0
27-05-2019 -- (--) -- (--) -- -- (--) -- (--) -- -- -- -- --
26-05-2019 -- (--) -- (--) -- -- (--) -- (--) -- -- -- -- --
25-05-2019 -- (--) -- (--) -- -- (--) -- (--) -- -- -- -- --
24-05-2019 -- (--) -- (--) -- -- (--) -- (--) -- -- -- -- --
23-05-2019 -- (--) -- (--) -- -- (--) -- (--) -- -- -- -- --
22-05-2019 -- (--) -- (--) -- -- (--) -- (--) -- -- -- -- --
21-05-2019 -- (--) -- (--) -- -- (--) -- (--) -- -- -- -- --
20-05-2019 -- (--) -- (--) -- -- (--) -- (--) -- -- -- -- --
19-05-2019 -- (--) -- (--) -- -- (--) -- (--) -- -- -- -- --
18-05-2019 12.6 (13:50) 5.7 (00:00) 9.2 9.72 (17:30) 5.28 (17:30) 1.7 0 0.1 0 1.6
17-05-2019 11.4 (00:00) 6.9 (00:00) 9.1 12.5 (15:20) 5.83 (14:40) 52.3 33.9 17 1.2 0.2

Gráficas

Temp. máximas Temp. mínimas Temp. medias Precipitaciones Rachas de viento máximas Velocidades máximas media en intervalos de 10 minutos

Datos horarios

Fecha y hora oficial Temperatura (ºC) Velocidad del viento (km/h) Dirección del viento Racha (km/h) Dirección de racha Precipitación (mm) Presión (hPa) Tendencia (hPa) Humedad (%)
2019-06-15 23:00:00 13.9 10 Noroeste 20 Noroeste 0 -- -- 70
2019-06-15 22:00:00 15.1 12 Noroeste 23 Noroeste 0 -- -- 62
2019-06-15 21:00:00 17.3 9 Noroeste 26 Norte 0 -- -- 51
2019-06-15 20:00:00 18.9 12 Norte 40 Norte 0 -- -- 48
2019-06-15 19:00:00 19.6 13 Noroeste 37 Noroeste 0 -- -- 47
2019-06-15 18:00:00 19.7 15 Noroeste 39 Noroeste 0 -- -- 48
2019-06-15 17:00:00 20.7 14 Noroeste 30 Noroeste 0 -- -- 45
2019-06-15 16:00:00 20.8 15 Norte 31 Norte 0 -- -- 46
2019-06-15 15:00:00 20.2 12 Noroeste 30 Noroeste 0 -- -- 48
2019-06-15 14:00:00 20.2 11 Noroeste 25 Noroeste 0 -- -- 53
2019-06-15 13:00:00 19.3 12 Noroeste 23 Norte 0 -- -- 59
2019-06-15 12:00:00 18.6 10 Noroeste 22 Noroeste 0 -- -- 64
2019-06-15 11:00:00 16.5 11 Noroeste 19 Noroeste 0 -- -- 69
2019-06-15 10:00:00 15.3 6 Noroeste 17 Norte 0 -- -- 77
2019-06-15 09:00:00 13.4 7 Noroeste 20 Noroeste 0 -- -- 84
2019-06-15 08:00:00 12.2 9 Noroeste 15 Noroeste 0 -- -- 89
2019-06-15 07:00:00 11 5 Noroeste 17 Noroeste 0 -- -- 93
2019-06-15 06:00:00 11.4 9 Noroeste 20 Noroeste 0 -- -- 91
2019-06-15 05:00:00 11.9 4 Oeste 21 Noroeste 0 -- -- 91
2019-06-15 04:00:00 12.3 11 Noroeste 26 Noroeste 0 -- -- 91
2019-06-15 03:00:00 12.9 10 Noroeste 22 Noroeste 0 -- -- 91
2019-06-15 02:00:00 13.2 10 Noroeste 22 Noroeste 0 -- -- 91
2019-06-15 01:00:00 13.1 9 Noroeste 21 Noroeste 0 -- -- 91
2019-06-15 00:00:00 13.3 7 Noroeste 19 Noroeste 0 -- -- 90
2019-06-14 23:00:00 13.8 2 Noroeste 11 Norte 0 -- -- 87
2019-06-14 22:00:00 15.6 3 Noroeste 23 Noroeste 0 -- -- 80
2019-06-14 21:00:00 17.8 15 Noroeste 30 Noroeste 0 -- -- 70
2019-06-14 20:00:00 23.3 13 Noroeste 33 Noroeste 0 -- -- 48
2019-06-14 19:00:00 24.9 8 Sudoeste 21 Sur 0 -- -- 38
2019-06-14 18:00:00 24.1 8 Oeste 16 Oeste 0 -- -- 45
2019-06-14 17:00:00 23.1 5 Oeste 19 Norte 0 -- -- 47
2019-06-14 16:00:00 23.4 6 Oeste 17 Oeste 0 -- -- 53
2019-06-14 15:00:00 22.2 7 Noroeste 31 Norte 0 -- -- 61
2019-06-14 14:00:00 19.2 7 Noroeste 13 Norte 0 -- -- 70
2019-06-14 13:00:00 16.7 0 Calma 10 Oeste 0 -- -- 82
2019-06-14 12:00:00 15.7 6 Noroeste 11 Noroeste 0 -- -- 81
2019-06-14 11:00:00 16.2 5 Noroeste 11 Noroeste 0 -- -- 78
2019-06-14 10:00:00 15.7 0 Calma 9 Noroeste 0 -- -- 83
2019-06-14 09:00:00 13.1 2 Noroeste 8 Oeste 0 -- -- 96
2019-06-14 08:00:00 11.9 5 Oeste 9 Oeste 0 -- -- 97
2019-06-14 07:00:00 11.3 0 Calma 5 Noroeste 0 -- -- 96
2019-06-14 06:00:00 11.4 0 Calma 4 Sur 0 -- -- 95
2019-06-14 05:00:00 11.4 2 Sur 6 Sur 0 -- -- 93
2019-06-14 04:00:00 12.1 3 Noroeste 6 Sudoeste 0 -- -- 91
2019-06-14 03:00:00 13 0 Calma 11 Norte 0 -- -- 85
2019-06-14 02:00:00 14.6 4 Noroeste 19 Noroeste 0 -- -- 76
2019-06-14 01:00:00 16.1 12 Noroeste 22 Noroeste 0 -- -- 62
2019-06-14 00:00:00 18.6 8 Sudoeste 54 Sudoeste 0 -- -- 49
2019-06-13 23:00:00 18.9 30 Sur 57 Sudoeste 0 -- -- 48
2019-06-13 22:00:00 19.3 25 Sur 57 Sudoeste 0 -- -- 49
2019-06-13 21:00:00 21.2 23 Sudoeste 46 Sudoeste 0 -- -- 48
2019-06-13 20:00:00 22.2 17 Sudoeste 88 Sudoeste 0 -- -- 44
2019-06-13 19:00:00 23.7 23 Sudoeste 44 Sudoeste 0 -- -- 45
2019-06-13 18:00:00 23.5 19 Sudoeste 41 Sudoeste 0 -- -- 45
2019-06-13 17:00:00 24.4 19 Sudoeste 44 Sudoeste 0 -- -- 44
2019-06-13 16:00:00 23.3 21 Sudoeste 49 Sudoeste 0 -- -- 46
2019-06-13 15:00:00 23 15 Sudoeste 43 Sudoeste 0 -- -- 46
2019-06-13 14:00:00 22.1 17 Sur 41 Oeste 0 -- -- 50
2019-06-13 13:00:00 21.1 19 Sudoeste 39 Sudoeste 0 -- -- 53
2019-06-13 12:00:00 19.2 21 Sudoeste 41 Sudoeste 0 -- -- 54
2019-06-13 11:00:00 17.9 19 Sudoeste 35 Sudoeste 0 -- -- 54
2019-06-13 10:00:00 17 15 Sur 36 Sur 0 -- -- 53
2019-06-13 09:00:00 15.2 9 Sudoeste 33 Sudoeste 0 -- -- 53
2019-06-13 08:00:00 14 12 Sudoeste 35 Sudoeste 0 -- -- 53
2019-06-13 07:00:00 13.1 16 Sudoeste 33 Sur 0 -- -- 53
2019-06-13 06:00:00 12.4 10 Sudoeste 24 Oeste 0 -- -- 54
2019-06-13 05:00:00 11 3 Noroeste 9 Sur 0 -- -- 66
2019-06-13 04:00:00 10.4 0 Calma 17 Noroeste 0 -- -- 72
2019-06-13 03:00:00 11.6 4 Noroeste 36 Sudoeste 0 -- -- 70
2019-06-13 02:00:00 13.9 16 Sudoeste 34 Sudoeste 0 -- -- 60
2019-06-13 01:00:00 10 3 Sudoeste 9 Sudoeste 0 -- -- 83
2019-06-13 00:00:00 12 0 Calma 12 Sudoeste 0 -- -- 74
2019-06-12 23:00:00 13.2 2 Sudoeste 9 Noroeste 0 -- -- 64
2019-06-12 22:00:00 14.3 4 Noroeste 11 Noroeste 0 -- -- 51
2019-06-12 21:00:00 18.3 0 Calma 9 Norte 0 -- -- 37
2019-06-12 20:00:00 19.8 4 Noroeste 12 Oeste 0 -- -- 35
2019-06-12 19:00:00 19.8 6 Noroeste 15 Sudoeste 0 -- -- 34
2019-06-12 18:00:00 19.8 6 Oeste 20 Sur 0 -- -- 33
2019-06-12 17:00:00 19.4 5 Noroeste 21 Sudoeste 0 -- -- 35
2019-06-12 16:00:00 19.3 7 Noroeste 23 Sudoeste 0 -- -- 37
2019-06-12 15:00:00 18.2 5 Oeste 31 Sudoeste 0 -- -- 36
2019-06-12 14:00:00 17.3 8 Sudoeste 23 Sudoeste 0 -- -- 37
2019-06-12 13:00:00 16.5 6 Sudoeste 22 Sudoeste 0 -- -- 43
2019-06-12 12:00:00 14.8 3 Noroeste 14 Noroeste 0 -- -- 48
2019-06-12 11:00:00 13.9 8 Noroeste 16 Norte 0 -- -- 51
2019-06-12 10:00:00 12.4 3 Noroeste 10 Norte 0 -- -- 66
2019-06-12 09:00:00 10.7 2 Noroeste 9 Norte 0 -- -- 81
2019-06-12 08:00:00 8.2 3 Noroeste 6 Norte 0 -- -- 99
2019-06-12 07:00:00 4.8 0 Calma 14 Sudoeste 0 -- -- 99
2019-06-12 06:00:00 4.4 8 Sudoeste 14 Sudoeste 0 -- -- 99
2019-06-12 05:00:00 4.4 6 Sudoeste 12 Sudoeste 0 -- -- 99
2019-06-12 04:00:00 4.6 8 Sudoeste 13 Sudoeste 0 -- -- 99
2019-06-12 03:00:00 5 6 Sudoeste 14 Sudoeste 0 -- -- 99
2019-06-12 02:00:00 5 0 Calma 4 Sur 0 -- -- 95
2019-06-12 01:00:00 6.3 3 Sur 6 Norte 0 -- -- 92
2019-06-12 00:00:00 8.1 4 Noroeste 12 Noroeste 0 -- -- 87
2019-06-11 23:00:00 8.7 4 Noroeste 20 Noroeste 0 -- -- 83
2019-06-11 22:00:00 9.5 12 Noroeste 37 Noroeste 0 -- -- 77
2019-06-11 21:00:00 10.2 18 Noroeste 37 Noroeste 0 -- -- 73
2019-06-11 20:00:00 11.8 13 Noroeste 28 Noroeste 0 -- -- 65
2019-06-11 19:00:00 11.8 16 Noroeste 39 Noroeste 0 -- -- 62
2019-06-11 18:00:00 13.1 21 Noroeste 40 Norte 0 -- -- 59
2019-06-11 17:00:00 13.2 21 Noroeste 39 Noroeste 0 -- -- 59
2019-06-11 16:00:00 14 14 Noroeste 40 Noroeste 0 -- -- 59
2019-06-11 15:00:00 12.8 14 Noroeste 30 Norte 0 -- -- 66
2019-06-11 14:00:00 12.6 12 Norte 37 Noroeste 0 -- -- 66
2019-06-11 13:00:00 13 9 Noroeste 25 Noroeste 0 -- -- 61
2019-06-11 12:00:00 11.9 11 Noroeste 25 Noroeste 0 -- -- 69
2019-06-11 11:00:00 11.3 13 Noroeste 26 Noroeste 0 -- -- 77
2019-06-11 10:00:00 9.8 10 Noroeste 20 Noroeste 0 -- -- 93
2019-06-11 09:00:00 8.6 9 Noroeste 21 Norte 0 -- -- 95
2019-06-11 08:00:00 8.3 8 Noroeste 15 Noroeste 0 -- -- 95
2019-06-11 07:00:00 7.8 6 Noroeste 17 Noroeste 0.1 -- -- 95
2019-06-11 06:00:00 7.9 4 Noroeste 11 Noroeste 0 -- -- 95
2019-06-11 05:00:00 8 3 Noroeste 12 Noroeste 0.4 -- -- 95
2019-06-11 04:00:00 8.3 4 Noroeste 19 Noroeste 0.5 -- -- 90
2019-06-11 03:00:00 9 8 Noroeste 25 Noroeste 0.6 -- -- 85
2019-06-11 02:00:00 10 11 Noroeste 27 Noroeste 0 -- -- 71
2019-06-11 01:00:00 10.3 14 Noroeste 30 Noroeste 0 -- -- 67
2019-06-11 00:00:00 10.5 14 Noroeste 31 Noroeste 0 -- -- 68
2019-06-10 23:00:00 11.6 15 Noroeste 27 Noroeste 0 -- -- 61
2019-06-10 22:00:00 11.7 12 Noroeste 30 Noroeste 0 -- -- 66
2019-06-10 21:00:00 12 17 Noroeste 39 Noroeste 0 -- -- 68
2019-06-10 20:00:00 12.2 21 Noroeste 44 Noroeste 0 -- -- 67
2019-06-10 19:00:00 13.3 18 Noroeste 41 Noroeste 0 -- -- 65
2019-06-10 18:00:00 14.9 21 Noroeste 45 Norte 0 -- -- 61
2019-06-10 17:00:00 14.6 19 Noroeste 43 Norte 0 -- -- 62
2019-06-10 16:00:00 15.4 19 Noroeste 39 Norte 0 -- -- 60
2019-06-10 15:00:00 15.6 18 Noroeste 36 Noroeste 0 -- -- 62
2019-06-10 14:00:00 16.2 17 Noroeste 32 Noroeste 0 -- -- 65
2019-06-10 13:00:00 16.3 15 Noroeste 34 Norte 0 -- -- 63
2019-06-10 12:00:00 14.6 19 Noroeste 34 Norte 0 -- -- 69
2019-06-10 11:00:00 14.4 17 Noroeste 40 Noroeste 0 -- -- 73
2019-06-10 10:00:00 13.7 15 Noroeste 33 Norte 0 -- -- 77
2019-06-10 09:00:00 12 20 Noroeste 40 Norte 0 -- -- 83
2019-06-10 08:00:00 10.2 17 Noroeste 31 Norte 0 -- -- 89
2019-06-10 07:00:00 10.4 17 Noroeste 42 Noroeste 0 -- -- 91
2019-06-10 06:00:00 10.1 16 Noroeste 26 Noroeste 0 -- -- 92
2019-06-10 05:00:00 10.4 16 Noroeste 35 Noroeste 0 -- -- 92
2019-06-10 04:00:00 10.7 20 Noroeste 39 Noroeste 0 -- -- 92
2019-06-10 03:00:00 11 18 Noroeste 40 Noroeste 0 -- -- 92
2019-06-10 02:00:00 11.6 19 Noroeste 40 Noroeste 0 -- -- 91
2019-06-10 01:00:00 11.9 19 Noroeste 37 Noroeste 0 -- -- 91
2019-06-10 00:00:00 12.2 20 Noroeste 38 Noroeste 0 -- -- 91
2019-06-09 23:00:00 12.7 22 Noroeste 43 Noroeste 0 -- -- 91
2019-06-09 22:00:00 12.9 18 Noroeste 44 Noroeste 0 -- -- 90
2019-06-09 21:00:00 14.3 18 Noroeste 40 Noroeste 0 -- -- 84
2019-06-09 20:00:00 16.2 20 Noroeste 41 Noroeste 0 -- -- 75
2019-06-09 19:00:00 19.1 18 Noroeste 39 Noroeste 0 -- -- 65
2019-06-09 18:00:00 22.1 18 Noroeste 38 Noroeste 0 -- -- 55
2019-06-09 17:00:00 25 12 Sudoeste 25 Sudoeste 0 -- -- 34
2019-06-09 16:00:00 24.9 7 Sudoeste 25 Sudoeste 0 -- -- 36
2019-06-09 15:00:00 25.5 8 Sudoeste 23 Sudoeste 0 -- -- 39
2019-06-09 14:00:00 24.4 3 Oeste 20 Sudoeste 0 -- -- 40
2019-06-09 13:00:00 23.1 10 Sur 19 Sudoeste 0 -- -- 43
2019-06-09 12:00:00 22.1 7 Noroeste 22 Sudoeste 0 -- -- 53
2019-06-09 11:00:00 21.1 6 Oeste 15 Noroeste 0 -- -- 58
2019-06-09 10:00:00 18.7 5 Noroeste 13 Oeste 0 -- -- 64
2019-06-09 09:00:00 15.5 0 Calma 6 Norte 0 -- -- 75
2019-06-09 08:00:00 14.4 0 Calma 10 Sur 0 -- -- 70
2019-06-09 07:00:00 13.5 0 Calma 7 Oeste 0 -- -- 69
2019-06-09 06:00:00 14.7 2 Sudoeste 12 Sudoeste 0 -- -- 61
2019-06-09 05:00:00 14.3 2 Sudoeste 4 Sudoeste 0 -- -- 62
2019-06-09 04:00:00 14.6 0 Calma 10 Norte 0 -- -- 59
2019-06-09 03:00:00 15.1 2 Sur 9 Sur 0 -- -- 55
2019-06-09 02:00:00 15.5 4 Sudoeste 8 Sudoeste 0 -- -- 52
2019-06-09 01:00:00 16.8 0 Calma 15 Noroeste 0 -- -- 46
2019-06-09 00:00:00 17.5 6 Noroeste 40 Sudoeste 0 -- -- 44
2019-06-08 23:00:00 18.6 15 Sudoeste 36 Oeste 0 -- -- 43
2019-06-08 22:00:00 19.3 17 Sur 36 Sudoeste 0 -- -- 43
2019-06-08 21:00:00 20 11 Sur 26 Sudoeste 0 -- -- 42
2019-06-08 20:00:00 20.8 11 Sudoeste 26 Sudoeste 0 -- -- 40
2019-06-08 19:00:00 21.5 14 Sudoeste 24 Sur 0 -- -- 39
2019-06-08 18:00:00 22.5 7 Sudoeste 26 Sur 0 -- -- 37
2019-06-08 17:00:00 22.4 13 Sur 26 Sudoeste 0 -- -- 36
2019-06-08 16:00:00 22.6 10 Sudoeste 24 Sudoeste 0 -- -- 35
2019-06-08 15:00:00 22.5 9 Sur 24 Sudoeste 0 -- -- 35
2019-06-08 14:00:00 21 11 Sudoeste 27 Sudoeste 0 -- -- 36
2019-06-08 13:00:00 20.3 12 Sudoeste 29 Oeste 0 -- -- 38
2019-06-08 12:00:00 17.8 8 Norte 14 Noroeste 0 -- -- 57
2019-06-08 11:00:00 16.3 6 Noroeste 12 Noroeste 0 -- -- 62
2019-06-08 10:00:00 14.1 6 Noroeste 10 Noroeste 0 -- -- 70
2019-06-08 09:00:00 12.2 5 Noroeste 9 Noroeste 0 -- -- 80
2019-06-08 08:00:00 8.7 0 Calma 4 Sudoeste 0 -- -- 99
2019-06-08 07:00:00 5.2 0 Calma 5 Sudoeste 0 -- -- 99
2019-06-08 06:00:00 5 0 Calma 6 Sur 0 -- -- 98
2019-06-08 05:00:00 5.1 0 Calma 8 Sudoeste 0 -- -- 97
2019-06-08 04:00:00 5.7 4 Sudoeste 8 Sudoeste 0 -- -- 95
2019-06-08 03:00:00 6.8 2 Sudoeste 13 Noroeste 0 -- -- 91
2019-06-08 02:00:00 8.3 4 Oeste 11 Noroeste 0 -- -- 88
2019-06-08 01:00:00 8.3 0 Calma 4 Noroeste 0 -- -- 85
2019-06-08 00:00:00 9.8 3 Oeste 11 Noroeste 0 -- -- 79
2019-06-07 23:00:00 10.7 2 Noroeste 11 Oeste 0 -- -- 73
2019-06-07 22:00:00 12.4 6 Noroeste 21 Noroeste 0 -- -- 66
2019-06-07 21:00:00 14.3 9 Noroeste 30 Noroeste 0 -- -- 59
2019-06-07 20:00:00 17.2 13 Noroeste 23 Noroeste 0 -- -- 46
2019-06-07 19:00:00 18.1 4 Noroeste 19 Noroeste 0 -- -- 39
2019-06-07 18:00:00 18.3 9 Noroeste 21 Noroeste 0 -- -- 40
2019-06-07 17:00:00 17.6 9 Noroeste 24 Noroeste 0 -- -- 42
2019-06-07 16:00:00 17.7 6 Noroeste 19 Noroeste 0 -- -- 44
2019-06-07 15:00:00 16.6 9 Noroeste 24 Noroeste 0 -- -- 45
2019-06-07 14:00:00 16 9 Noroeste 19 Noroeste 0 -- -- 46
2019-06-07 13:00:00 15.6 4 Oeste 19 Sudoeste 0 -- -- 48
2019-06-07 12:00:00 15.1 9 Sudoeste 33 Oeste 0 -- -- 47
2019-06-07 11:00:00 14.9 9 Noroeste 24 Sudoeste 0 -- -- 49
2019-06-07 10:00:00 14.2 7 Sudoeste 20 Sudoeste 0 -- -- 55
2019-06-07 09:00:00 13.2 8 Sudoeste 26 Oeste 0 -- -- 60
2019-06-07 08:00:00 11 8 Sudoeste 24 Sudoeste 0 -- -- 74
2019-06-07 07:00:00 11.1 11 Sudoeste 22 Oeste 0 -- -- 80
2019-06-07 06:00:00 12.7 13 Sudoeste 32 Sudoeste 0 -- -- 81
2019-06-07 05:00:00 14.1 15 Sur 55 Sur 0 -- -- 81
2019-06-07 04:00:00 14.5 25 Sudoeste 57 Sur 0 -- -- 76
2019-06-07 03:00:00 14.7 28 Sur 58 Sudoeste 0 -- -- 73
2019-06-07 02:00:00 15 31 Sur 67 Sur 0 -- -- 68
2019-06-07 01:00:00 15.4 34 Sur 94 Sudoeste 0 -- -- 64
2019-06-07 00:00:00 15.7 25 Sudoeste 62 Sudoeste 0 -- -- 59
2019-06-06 23:00:00 16.2 23 Sudoeste 62 Sudoeste 0 -- -- 55
2019-06-06 22:00:00 17 25 Sudoeste 63 Oeste 0 -- -- 53
2019-06-06 21:00:00 17.6 30 Sudoeste 58 Sudoeste 0 -- -- 52
2019-06-06 20:00:00 19.6 19 Sudoeste 53 Sudoeste 0 -- -- 47
2019-06-06 19:00:00 20.6 25 Sudoeste 62 Sudoeste 0 -- -- 44
2019-06-06 18:00:00 20.8 21 Sudoeste 46 Sur 0 -- -- 39
2019-06-06 17:00:00 21.2 20 Sur 49 Sur 0 -- -- 39
2019-06-06 16:00:00 20 21 Sur 44 Sur 0 -- -- 40
2019-06-06 15:00:00 19.7 18 Sudoeste 41 Sur 0 -- -- 41
2019-06-06 14:00:00 18.8 19 Sudoeste 37 Sudoeste 0 -- -- 44
2019-06-06 13:00:00 17.7 19 Sudoeste 41 Sudoeste 0 -- -- 50
2019-06-06 12:00:00 17 14 Sur 29 Sudoeste 0 -- -- 53
2019-06-06 11:00:00 15.8 12 Sur 21 Sur 0 -- -- 58
2019-06-06 10:00:00 13.4 5 Noroeste 10 Noroeste 0 -- -- 77
2019-06-06 09:00:00 10.9 3 Noroeste 6 Noroeste 0 -- -- 95
2019-06-06 08:00:00 8.5 0 Calma 5 Sudoeste 0 -- -- 97
2019-06-06 07:00:00 7.5 3 Sudoeste 7 Sudoeste 0 -- -- 97
2019-06-06 06:00:00 7.3 2 Sudoeste 6 Sudoeste 0 -- -- 96
2019-06-06 05:00:00 7.2 3 Sudoeste 6 Sudoeste 0 -- -- 95
2019-06-06 04:00:00 7.5 2 Sudoeste 9 Noroeste 0 -- -- 91
2019-06-06 03:00:00 7.8 2 Oeste 7 Noroeste 0 -- -- 87
2019-06-06 02:00:00 8.7 4 Noroeste 21 Noroeste 0 -- -- 82
2019-06-06 01:00:00 9.1 8 Noroeste 15 Noroeste 0 -- -- 83
2019-06-06 00:00:00 8.8 2 Oeste 16 Noroeste 0 -- -- 83
2019-06-05 23:00:00 9.6 6 Noroeste 19 Norte 0 -- -- 77
2019-06-05 22:00:00 10.5 10 Noroeste 18 Noroeste 0 -- -- 74
2019-06-05 21:00:00 11.8 10 Noroeste 34 Noroeste 0 -- -- 69
2019-06-05 20:00:00 13 15 Noroeste 31 Noroeste 0 -- -- 68
2019-06-05 19:00:00 12.9 13 Noroeste 31 Norte 0 -- -- 70
2019-06-05 18:00:00 13.5 16 Norte 33 Norte 0 -- -- 67
2019-06-05 17:00:00 13.6 16 Noroeste 35 Noroeste 0 -- -- 70
2019-06-05 16:00:00 12.8 15 Noroeste 33 Noroeste 0 -- -- 74
2019-06-05 15:00:00 13 11 Noroeste 23 Norte 0 -- -- 75
2019-06-05 14:00:00 13 14 Noroeste 38 Noroeste 0 -- -- 75
2019-06-05 13:00:00 11 19 Noroeste 35 Noroeste 0 -- -- 81
2019-06-05 12:00:00 10.3 17 Noroeste 36 Oeste 0 -- -- 99
2019-06-05 11:00:00 9.1 17 Noroeste 30 Noroeste 1.7 -- -- 99
2019-06-05 10:00:00 9.1 9 Noroeste 35 Noroeste 6 -- -- 99
2019-06-05 09:00:00 9.5 11 Noroeste 23 Noroeste 5.7 -- -- 99
2019-06-05 08:00:00 10 5 Noroeste 13 Noroeste 1.7 -- -- 99
2019-06-05 07:00:00 10.1 3 Noroeste 15 Noroeste 3.5 -- -- 99
2019-06-05 06:00:00 10.1 5 Noroeste 18 Noroeste 1.5 -- -- 99
2019-06-05 05:00:00 10.1 5 Noroeste 17 Noroeste 2.4 -- -- 98
2019-06-05 04:00:00 11.2 2 Oeste 19 Noroeste 1.3 -- -- 95
2019-06-05 03:00:00 11.3 8 Noroeste 21 Noroeste 0 -- -- 95
2019-06-05 02:00:00 11.3 9 Noroeste 20 Noroeste 0 -- -- 95
2019-06-05 01:00:00 11.9 9 Noroeste 24 Noroeste 0 -- -- 96
2019-06-05 00:00:00 12.3 14 Noroeste 30 Noroeste 0 -- -- 97
2019-06-04 23:00:00 13.3 14 Noroeste 32 Noroeste 0.7 -- -- 98
2019-06-04 22:00:00 13.6 12 Noroeste 28 Noroeste 0.7 -- -- 98
2019-06-04 21:00:00 14.8 11 Noroeste 29 Noroeste 1 -- -- 95
2019-06-04 20:00:00 15.5 11 Noroeste 37 Norte 1.8 -- -- 94
2019-06-04 19:00:00 19.1 19 Noroeste 36 Noroeste 0 -- -- 77
2019-06-04 18:00:00 27.2 13 Sudoeste 30 Sudoeste 0 -- -- 39
2019-06-04 17:00:00 28 14 Sur 37 Sudoeste 0 -- -- 38
2019-06-04 16:00:00 28 14 Sur 36 Sur 0 -- -- 38
2019-06-04 15:00:00 28.1 15 Sudoeste 39 Sur 0 -- -- 38
2019-06-04 14:00:00 27.6 16 Sudoeste 34 Sudoeste 0 -- -- 39
2019-06-04 13:00:00 26.4 18 Sudoeste 38 Sur 0 -- -- 40
2019-06-04 12:00:00 25 18 Sudoeste 40 Sur 0 -- -- 41
2019-06-04 11:00:00 23.5 15 Sur 38 Sur 0 -- -- 43
2019-06-04 10:00:00 22.1 15 Sur 33 Sur 0 -- -- 44
2019-06-04 09:00:00 20.8 13 Sur 29 Sudoeste 0 -- -- 45
2019-06-04 08:00:00 19.6 8 Sur 18 Sur 0 -- -- 48
2019-06-04 07:00:00 18.7 6 Sudoeste 22 Sur 0 -- -- 47
2019-06-04 06:00:00 17 3 Sudoeste 7 Sudoeste 0 -- -- 51
2019-06-04 05:00:00 18.3 3 Noroeste 26 Sur 0 -- -- 47
2019-06-04 04:00:00 21 16 Sudoeste 50 Sur 0 -- -- 41
2019-06-04 03:00:00 21.9 26 Sur 47 Sur 0 -- -- 41
2019-06-04 02:00:00 22.5 29 Sur 57 Sudoeste 0 -- -- 41
2019-06-04 01:00:00 22.7 22 Sur 57 Sur 0 -- -- 43
2019-06-04 00:00:00 23.5 24 Sur 49 Sur 0 -- -- 42
2019-06-03 23:00:00 24.2 25 Sur 46 Sudoeste 0 -- -- 41
2019-06-03 22:00:00 24.4 19 Sur 36 Sur 0 -- -- 43
2019-06-03 21:00:00 25.4 17 Sur 34 Sur 0 -- -- 41
2019-06-03 20:00:00 26.7 10 Sudoeste 23 Sudoeste 0 -- -- 39
2019-06-03 19:00:00 28.3 11 Sur 22 Sur 0 -- -- 37
2019-06-03 18:00:00 27.9 7 Sur 21 Sudoeste 0 -- -- 39
2019-06-03 17:00:00 28.7 9 Sur 24 Sudoeste 0 -- -- 38
2019-06-03 16:00:00 28.2 11 Sudoeste 22 Sudoeste 0 -- -- 40
2019-06-03 15:00:00 27.3 7 Sudoeste 17 Sur 0 -- -- 44
2019-06-03 14:00:00 24.7 6 Noroeste 12 Noroeste 0 -- -- 55
2019-06-03 13:00:00 21.8 7 Noroeste 13 Norte 0 -- -- 58
2019-06-03 12:00:00 22.1 5 Noroeste 13 Noroeste 0 -- -- 60
2019-06-03 11:00:00 21.3 5 Noroeste 11 Noroeste 0 -- -- 66
2019-06-03 10:00:00 19.4 3 Noroeste 8 Noroeste 0 -- -- 73
2019-06-03 09:00:00 17.4 3 Sudoeste 5 Oeste 0 -- -- 73
2019-06-03 08:00:00 17.2 2 Sudoeste 10 Sur 0 -- -- 64
2019-06-03 07:00:00 18.5 7 Sur 39 Sur 0 -- -- 51
2019-06-03 06:00:00 18.2 14 Sudoeste 29 Sudoeste 0 -- -- 54
2019-06-03 05:00:00 17.8 5 Sur 15 Sudoeste 0 -- -- 62
2019-06-03 04:00:00 17.2 3 Sudoeste 10 Sudoeste 0 -- -- 63
2019-06-03 03:00:00 18.7 6 Sudoeste 11 Sur 0 -- -- 55
2019-06-03 02:00:00 21 4 Sudoeste 28 Sur 0 -- -- 46
2019-06-03 01:00:00 23 13 Sur 32 Sur 0 -- -- 40
2019-06-03 00:00:00 22 17 Sur 32 Sudoeste 0 -- -- 52
2019-06-02 23:00:00 19.3 8 Sudoeste 18 Sur 1.6 -- -- 79
2019-06-02 22:00:00 20.7 6 Sudoeste 14 Sudoeste 0 -- -- 55
2019-06-02 21:00:00 23.5 6 Sudoeste 11 Sudoeste 0 -- -- 50
2019-06-02 20:00:00 27.3 0 Calma 12 Oeste 0 -- -- 40
2019-06-02 19:00:00 28.9 4 Sudoeste 13 Sudoeste 0 -- -- 35
2019-06-02 18:00:00 29.9 6 Sudoeste 17 Sur 0 -- -- 34
2019-06-02 17:00:00 29.4 10 Sur 21 Sur 0 -- -- 34
2019-06-02 16:00:00 29.3 9 Sudoeste 22 Sudoeste 0 -- -- 35
2019-06-02 15:00:00 28.9 9 Sudoeste 22 Sudoeste 0 -- -- 38
2019-06-02 14:00:00 27.8 10 Sudoeste 20 Sur 0 -- -- 40
2019-06-02 13:00:00 27.3 9 Sudoeste 21 Sur 0 -- -- 42
2019-06-02 12:00:00 25.7 5 Sudoeste 14 Sudoeste 0 -- -- 48
2019-06-02 11:00:00 23.5 5 Noroeste 10 Noroeste 0 -- -- 58
2019-06-02 10:00:00 21.7 4 Noroeste 9 Noroeste 0 -- -- 66
2019-06-02 09:00:00 20.5 5 Noroeste 10 Noroeste 0 -- -- 65
2019-06-02 08:00:00 17.3 0 Calma 4 Sur 0 -- -- 77
2019-06-02 07:00:00 13.8 2 Sur 10 Sudoeste 0 -- -- 77
2019-06-02 06:00:00 13.8 4 Sudoeste 11 Sur 0 -- -- 75
2019-06-02 05:00:00 14.7 3 Sudoeste 10 Sudoeste 0 -- -- 70
2019-06-02 04:00:00 16 3 Sur 6 Sur 0 -- -- 62
2019-06-02 03:00:00 19.7 3 Noroeste 11 Noroeste 0 -- -- 48
2019-06-02 02:00:00 20.6 0 Calma 26 Sur 0 -- -- 47
2019-06-02 01:00:00 21.4 12 Sur 26 Sudoeste 0 -- -- 46
2019-06-02 00:00:00 21.4 10 Sur 21 Sudoeste 0 -- -- 45
2019-06-01 23:00:00 19.6 11 Sudoeste 15 Sudoeste 0 -- -- 44
2019-06-01 22:00:00 20 8 Sur 12 Sudoeste 0 -- -- 41
2019-06-01 21:00:00 23.1 8 Sudoeste 13 Sudoeste 0 -- -- 37
2019-06-01 20:00:00 27.3 6 Sudoeste 10 Oeste 0 -- -- 30
2019-06-01 19:00:00 28.4 3 Oeste 15 Sudoeste 0 -- -- 29
2019-06-01 18:00:00 28.3 8 Sur 16 Sudoeste 0 -- -- 33
2019-06-01 17:00:00 28.5 7 Sudoeste 22 Sudoeste 0 -- -- 34
2019-06-01 16:00:00 28.3 7 Sur 22 Sudoeste 0 -- -- 36
2019-06-01 15:00:00 27.7 10 Sudoeste 21 Sudoeste 0 -- -- 37
2019-06-01 14:00:00 27.1 9 Sudoeste 21 Sudoeste 0 -- -- 40
2019-06-01 13:00:00 25.6 5 Sudoeste 19 Sudoeste 0 -- -- 45
2019-06-01 12:00:00 24.2 6 Noroeste 15 Sur 0 -- -- 56
2019-06-01 11:00:00 22.9 7 Noroeste 13 Norte 0 -- -- 66
2019-06-01 10:00:00 21.1 6 Norte 9 Norte 0 -- -- 70
2019-06-01 09:00:00 19.2 0 Calma 5 Oeste 0 -- -- 71
2019-06-01 08:00:00 15.8 0 Calma 6 Sudoeste 0 -- -- 84
2019-06-01 07:00:00 12.4 3 Sudoeste 6 Sur 0 -- -- 88
2019-06-01 06:00:00 12.6 0 Calma 6 Noroeste 0 -- -- 86
2019-06-01 05:00:00 13.3 0 Calma 6 Sur 0 -- -- 84
2019-06-01 04:00:00 13.8 4 Sudoeste 7 Sudoeste 0 -- -- 79
2019-06-01 03:00:00 17.2 0 Calma 9 Sur 0 -- -- 66
2019-06-01 02:00:00 17.4 0 Calma 7 Sudoeste 0 -- -- 69
2019-06-01 01:00:00 16.1 5 Sudoeste 14 Sudoeste 0 -- -- 76
2019-06-01 00:00:00 16.4 6 Sudoeste 12 Sudoeste 0 -- -- 81
2019-05-31 23:00:00 17.5 5 Sudoeste 11 Sudoeste 0 -- -- 77
2019-05-31 22:00:00 18.8 4 Sudoeste 8 Sur 0 -- -- 66
2019-05-31 21:00:00 22.9 3 Sur 10 Norte 0 -- -- 48
2019-05-31 20:00:00 26.1 4 Noroeste 11 Norte 0 -- -- 38
2019-05-31 19:00:00 26.4 5 Noroeste 14 Norte 0 -- -- 36
2019-05-31 18:00:00 26.8 7 Noroeste 24 Noroeste 0 -- -- 35
2019-05-31 17:00:00 26.4 8 Noroeste 17 Noroeste 0 -- -- 38
2019-05-31 16:00:00 26.4 9 Noroeste 24 Oeste 0 -- -- 43
2019-05-31 15:00:00 25.2 10 Noroeste 22 Noroeste 0 -- -- 46
2019-05-31 14:00:00 24 8 Noroeste 18 Norte 0 -- -- 47
2019-05-31 13:00:00 23.2 11 Noroeste 18 Noroeste 0 -- -- 54
2019-05-31 12:00:00 21.7 9 Noroeste 16 Norte 0 -- -- 55
2019-05-31 11:00:00 20.6 5 Noroeste 12 Noroeste 0 -- -- 59
2019-05-31 10:00:00 18.8 4 Noroeste 7 Noroeste 0 -- -- 66
2019-05-31 09:00:00 16.9 4 Noroeste 8 Noroeste 0 -- -- 75
2019-05-31 08:00:00 13.1 0 Calma 3 Sur 0 -- -- 95
2019-05-31 07:00:00 10.2 0 Calma 6 Sudoeste 0 -- -- 97
2019-05-31 06:00:00 10 0 Calma 9 Sudoeste 0 -- -- 96
2019-05-31 05:00:00 10.5 5 Sudoeste 10 Sudoeste 0 -- -- 95
2019-05-31 04:00:00 10.8 2 Sudoeste 9 Sudoeste 0 -- -- 93
2019-05-31 03:00:00 11.8 5 Sudoeste 9 Sudoeste 0 -- -- 90
2019-05-31 02:00:00 13.9 2 Sudoeste 9 Oeste 0 -- -- 83
2019-05-31 01:00:00 14.5 0 Calma 8 Noroeste 0 -- -- 80
2019-05-31 00:00:00 16 5 Noroeste 16 Noroeste 0 -- -- 74
2019-05-30 23:00:00 17.1 8 Noroeste 24 Norte 0 -- -- 68
2019-05-30 22:00:00 18.6 13 Noroeste 31 Noroeste 0 -- -- 61
2019-05-30 21:00:00 20.3 19 Noroeste 37 Noroeste 0 -- -- 51
2019-05-30 20:00:00 22.8 13 Noroeste 30 Noroeste 0 -- -- 40
2019-05-30 19:00:00 24.5 19 Noroeste 34 Noroeste 0 -- -- 33
2019-05-30 18:00:00 25.6 15 Noroeste 29 Norte 0 -- -- 32
2019-05-30 17:00:00 26 15 Noroeste 30 Norte 0 -- -- 29
2019-05-30 16:00:00 25.5 14 Noroeste 27 Norte 0 -- -- 32
2019-05-30 15:00:00 24.6 9 Noroeste 21 Noroeste 0 -- -- 40
2019-05-30 14:00:00 22.6 6 Noroeste 17 Noroeste 0 -- -- 49
2019-05-30 13:00:00 20.3 8 Noroeste 18 Noroeste 0 -- -- 54
2019-05-30 12:00:00 18.4 6 Noroeste 15 Norte 0 -- -- 61
2019-05-30 11:00:00 15.6 7 Noroeste 15 Noroeste 0 -- -- 66
2019-05-30 10:00:00 13.8 7 Noroeste 13 Noroeste 0 -- -- 69
2019-05-30 09:00:00 14.4 4 Noroeste 8 Noroeste 0 -- -- 74
2019-05-30 08:00:00 11.5 0 Calma 7 Sudoeste 0 -- -- 89
2019-05-30 07:00:00 7.7 3 Sudoeste 6 Sudoeste 0 -- -- 90
2019-05-30 06:00:00 8.7 0 Calma 10 Noroeste 0 -- -- 85
2019-05-30 05:00:00 9.4 6 Noroeste 11 Noroeste 0 -- -- 85
2019-05-30 04:00:00 9.6 8 Noroeste 16 Noroeste 0 -- -- 82
2019-05-30 03:00:00 10 8 Noroeste 22 Noroeste 0 -- -- 80
2019-05-30 02:00:00 10.7 8 Noroeste 28 Noroeste 0 -- -- 77
2019-05-30 01:00:00 11 16 Noroeste 30 Noroeste 0 -- -- 77
2019-05-30 00:00:00 11.1 13 Noroeste 35 Noroeste 0 -- -- 76
2019-05-29 23:00:00 11.6 17 Noroeste 43 Noroeste 0 -- -- 73
2019-05-29 22:00:00 12.3 21 Noroeste 38 Noroeste 0 -- -- 69
2019-05-29 21:00:00 13.6 18 Norte 34 Norte 0 -- -- 63
2019-05-29 20:00:00 15.6 11 Noroeste 31 Noroeste 0 -- -- 56
2019-05-29 19:00:00 16.1 17 Norte 42 Norte 0 -- -- 53
2019-05-29 18:00:00 16.1 21 Norte 42 Norte 0 -- -- 53
2019-05-29 17:00:00 16.4 22 Noroeste 46 Norte 0 -- -- 54
2019-05-29 16:00:00 15.6 15 Noroeste 39 Norte 0 -- -- 56
2019-05-29 15:00:00 15.4 24 Norte 49 Norte 0 -- -- 55
2019-05-29 14:00:00 15.3 27 Norte 48 Norte 0 -- -- 55
2019-05-29 13:00:00 14.9 24 Norte 45 Norte 0 -- -- 56
2019-05-29 12:00:00 14 18 Noroeste 43 Norte 0 -- -- 66
2019-05-29 11:00:00 13.4 19 Norte 39 Norte 0 -- -- 65
2019-05-29 10:00:00 11.2 14 Norte 30 Norte 0 -- -- 80
2019-05-29 09:00:00 10.1 13 Noroeste 27 Norte 0 -- -- 86
2019-05-29 08:00:00 9.4 13 Noroeste 27 Noroeste 0 -- -- 90
2019-05-29 07:00:00 8.9 12 Noroeste 28 Noroeste 0 -- -- 89
2019-05-29 06:00:00 9.3 14 Noroeste 26 Noroeste 0 -- -- 83
2019-05-29 05:00:00 9.1 12 Noroeste 31 Norte 0 -- -- 84
2019-05-29 04:00:00 8.8 14 Noroeste 32 Noroeste 0 -- -- 89
2019-05-29 03:00:00 9.2 15 Noroeste 39 Noroeste 0 -- -- 85
2019-05-29 02:00:00 8.9 13 Noroeste 26 Norte 0 -- -- 87
2019-05-29 01:00:00 9 14 Noroeste 27 Noroeste 0 -- -- 85
2019-05-29 00:00:00 9.3 14 Noroeste 30 Noroeste 0 -- -- 84
2019-05-28 23:00:00 9.3 16 Noroeste 41 Norte 0 -- -- 85
2019-05-28 22:00:00 9.6 18 Noroeste 39 Noroeste 0 -- -- 84
2019-05-28 21:00:00 10.6 22 Noroeste 45 Noroeste 0 -- -- 74
2019-05-28 20:00:00 11.4 22 Noroeste 44 Norte 0 -- -- 69
2019-05-28 19:00:00 12.3 18 Noroeste 37 Norte 0 -- -- 69
2019-05-28 18:00:00 12 22 Noroeste 49 Noroeste 0 -- -- 71
2019-05-28 17:00:00 12.9 19 Noroeste 44 Noroeste 0 -- -- 73
2019-05-28 16:00:00 12.7 19 Noroeste 43 Norte 0 -- -- 70
2019-05-28 15:00:00 14.3 19 Noroeste 46 Noroeste 0 -- -- 63
2019-05-28 14:00:00 14.3 20 Noroeste 41 Norte 0 -- -- 68
2019-05-28 13:00:00 13.3 25 Noroeste 50 Noroeste 0 -- -- 70
2019-05-28 12:00:00 12.5 21 Noroeste -- -- -- -- -- 80
2019-05-28 11:00:00 -- -- -- -- -- -- -- -- --
2019-05-28 10:00:00 -- -- -- -- -- -- -- -- --
2019-05-28 09:00:00 -- -- -- -- -- -- -- -- --
2019-05-28 08:00:00 -- -- -- -- -- -- -- -- --
2019-05-28 07:00:00 -- -- -- -- -- -- -- -- --
2019-05-28 06:00:00 -- -- -- -- -- -- -- -- --
2019-05-28 05:00:00 -- -- -- -- -- -- -- -- --
2019-05-28 04:00:00 -- -- -- -- -- -- -- -- --
2019-05-28 03:00:00 -- -- -- -- -- -- -- -- --
2019-05-28 02:00:00 -- -- -- -- -- -- -- -- --
2019-05-28 01:00:00 -- -- -- -- -- -- -- -- --
2019-05-28 00:00:00 -- -- -- -- -- -- -- -- --
2019-05-27 23:00:00 -- -- -- -- -- -- -- -- --
2019-05-27 22:00:00 -- -- -- -- -- -- -- -- --
2019-05-27 21:00:00 -- -- -- -- -- -- -- -- --
2019-05-27 20:00:00 -- -- -- -- -- -- -- -- --
2019-05-27 19:00:00 -- -- -- -- -- -- -- -- --
2019-05-27 18:00:00 -- -- -- -- -- -- -- -- --
2019-05-27 17:00:00 -- -- -- -- -- -- -- -- --
2019-05-27 16:00:00 -- -- -- -- -- -- -- -- --
2019-05-27 15:00:00 -- -- -- -- -- -- -- -- --
2019-05-27 14:00:00 -- -- -- -- -- -- -- -- --
2019-05-27 13:00:00 -- -- -- -- -- -- -- -- --
2019-05-27 12:00:00 -- -- -- -- -- -- -- -- --
2019-05-27 11:00:00 -- -- -- -- -- -- -- -- --
2019-05-27 10:00:00 -- -- -- -- -- -- -- -- --
2019-05-27 09:00:00 -- -- -- -- -- -- -- -- --
2019-05-27 08:00:00 -- -- -- -- -- -- -- -- --
2019-05-27 07:00:00 -- -- -- -- -- -- -- -- --
2019-05-27 06:00:00 -- -- -- -- -- -- -- -- --
2019-05-27 05:00:00 -- -- -- -- -- -- -- -- --
2019-05-27 04:00:00 -- -- -- -- -- -- -- -- --
2019-05-27 03:00:00 -- -- -- -- -- -- -- -- --
2019-05-27 02:00:00 -- -- -- -- -- -- -- -- --
2019-05-27 01:00:00 -- -- -- -- -- -- -- -- --
2019-05-27 00:00:00 -- -- -- -- -- -- -- -- --
2019-05-26 23:00:00 -- -- -- -- -- -- -- -- --
2019-05-26 22:00:00 -- -- -- -- -- -- -- -- --
2019-05-26 21:00:00 -- -- -- -- -- -- -- -- --
2019-05-26 20:00:00 -- -- -- -- -- -- -- -- --
2019-05-26 19:00:00 -- -- -- -- -- -- -- -- --
2019-05-26 18:00:00 -- -- -- -- -- -- -- -- --
2019-05-26 17:00:00 -- -- -- -- -- -- -- -- --
2019-05-26 16:00:00 -- -- -- -- -- -- -- -- --
2019-05-26 15:00:00 -- -- -- -- -- -- -- -- --
2019-05-26 14:00:00 -- -- -- -- -- -- -- -- --
2019-05-26 13:00:00 -- -- -- -- -- -- -- -- --
2019-05-26 12:00:00 -- -- -- -- -- -- -- -- --
2019-05-26 11:00:00 -- -- -- -- -- -- -- -- --
2019-05-26 10:00:00 -- -- -- -- -- -- -- -- --
2019-05-26 09:00:00 -- -- -- -- -- -- -- -- --
2019-05-26 08:00:00 -- -- -- -- -- -- -- -- --
2019-05-26 07:00:00 -- -- -- -- -- -- -- -- --
2019-05-26 06:00:00 -- -- -- -- -- -- -- -- --
2019-05-26 05:00:00 -- -- -- -- -- -- -- -- --
2019-05-26 04:00:00 -- -- -- -- -- -- -- -- --
2019-05-26 03:00:00 -- -- -- -- -- -- -- -- --
2019-05-26 02:00:00 -- -- -- -- -- -- -- -- --
2019-05-26 01:00:00 -- -- -- -- -- -- -- -- --
2019-05-26 00:00:00 -- -- -- -- -- -- -- -- --
2019-05-25 23:00:00 -- -- -- -- -- -- -- -- --
2019-05-25 22:00:00 -- -- -- -- -- -- -- -- --
2019-05-25 21:00:00 -- -- -- -- -- -- -- -- --
2019-05-25 20:00:00 -- -- -- -- -- -- -- -- --
2019-05-25 19:00:00 -- -- -- -- -- -- -- -- --
2019-05-25 18:00:00 -- -- -- -- -- -- -- -- --
2019-05-25 17:00:00 -- -- -- -- -- -- -- -- --
2019-05-25 16:00:00 -- -- -- -- -- -- -- -- --
2019-05-25 15:00:00 -- -- -- -- -- -- -- -- --
2019-05-25 14:00:00 -- -- -- -- -- -- -- -- --
2019-05-25 13:00:00 -- -- -- -- -- -- -- -- --
2019-05-25 12:00:00 -- -- -- -- -- -- -- -- --
2019-05-25 11:00:00 -- -- -- -- -- -- -- -- --
2019-05-25 10:00:00 -- -- -- -- -- -- -- -- --
2019-05-25 09:00:00 -- -- -- -- -- -- -- -- --
2019-05-25 08:00:00 -- -- -- -- -- -- -- -- --
2019-05-25 07:00:00 -- -- -- -- -- -- -- -- --
2019-05-25 06:00:00 -- -- -- -- -- -- -- -- --
2019-05-25 05:00:00 -- -- -- -- -- -- -- -- --
2019-05-25 04:00:00 -- -- -- -- -- -- -- -- --
2019-05-25 03:00:00 -- -- -- -- -- -- -- -- --
2019-05-25 02:00:00 -- -- -- -- -- -- -- -- --
2019-05-25 01:00:00 -- -- -- -- -- -- -- -- --
2019-05-25 00:00:00 -- -- -- -- -- -- -- -- --
2019-05-24 23:00:00 -- -- -- -- -- -- -- -- --
2019-05-24 22:00:00 -- -- -- -- -- -- -- -- --
2019-05-24 21:00:00 -- -- -- -- -- -- -- -- --
2019-05-24 20:00:00 -- -- -- -- -- -- -- -- --
2019-05-24 19:00:00 -- -- -- -- -- -- -- -- --
2019-05-24 18:00:00 -- -- -- -- -- -- -- -- --
2019-05-24 17:00:00 -- -- -- -- -- -- -- -- --
2019-05-24 16:00:00 -- -- -- -- -- -- -- -- --
2019-05-24 15:00:00 -- -- -- -- -- -- -- -- --
2019-05-24 14:00:00 -- -- -- -- -- -- -- -- --
2019-05-24 13:00:00 -- -- -- -- -- -- -- -- --
2019-05-24 12:00:00 -- -- -- -- -- -- -- -- --
2019-05-24 11:00:00 -- -- -- -- -- -- -- -- --
2019-05-24 10:00:00 -- -- -- -- -- -- -- -- --
2019-05-24 09:00:00 -- -- -- -- -- -- -- -- --
2019-05-24 08:00:00 -- -- -- -- -- -- -- -- --
2019-05-24 07:00:00 -- -- -- -- -- -- -- -- --
2019-05-24 06:00:00 -- -- -- -- -- -- -- -- --
2019-05-24 05:00:00 -- -- -- -- -- -- -- -- --
2019-05-24 04:00:00 -- -- -- -- -- -- -- -- --
2019-05-24 03:00:00 -- -- -- -- -- -- -- -- --
2019-05-24 02:00:00 -- -- -- -- -- -- -- -- --
2019-05-24 01:00:00 -- -- -- -- -- -- -- -- --
2019-05-24 00:00:00 -- -- -- -- -- -- -- -- --
2019-05-23 23:00:00 -- -- -- -- -- -- -- -- --
2019-05-23 22:00:00 -- -- -- -- -- -- -- -- --
2019-05-23 21:00:00 -- -- -- -- -- -- -- -- --
2019-05-23 20:00:00 -- -- -- -- -- -- -- -- --
2019-05-23 19:00:00 -- -- -- -- -- -- -- -- --
2019-05-23 18:00:00 -- -- -- -- -- -- -- -- --
2019-05-23 17:00:00 -- -- -- -- -- -- -- -- --
2019-05-23 16:00:00 -- -- -- -- -- -- -- -- --
2019-05-23 15:00:00 -- -- -- -- -- -- -- -- --
2019-05-23 14:00:00 -- -- -- -- -- -- -- -- --
2019-05-23 13:00:00 -- -- -- -- -- -- -- -- --
2019-05-23 12:00:00 -- -- -- -- -- -- -- -- --
2019-05-23 11:00:00 -- -- -- -- -- -- -- -- --
2019-05-23 10:00:00 -- -- -- -- -- -- -- -- --
2019-05-23 09:00:00 -- -- -- -- -- -- -- -- --
2019-05-23 08:00:00 -- -- -- -- -- -- -- -- --
2019-05-23 07:00:00 -- -- -- -- -- -- -- -- --
2019-05-23 06:00:00 -- -- -- -- -- -- -- -- --
2019-05-23 05:00:00 -- -- -- -- -- -- -- -- --
2019-05-23 04:00:00 -- -- -- -- -- -- -- -- --
2019-05-23 03:00:00 -- -- -- -- -- -- -- -- --
2019-05-23 02:00:00 -- -- -- -- -- -- -- -- --
2019-05-23 01:00:00 -- -- -- -- -- -- -- -- --
2019-05-23 00:00:00 -- -- -- -- -- -- -- -- --
2019-05-22 23:00:00 -- -- -- -- -- -- -- -- --
2019-05-22 22:00:00 -- -- -- -- -- -- -- -- --
2019-05-22 21:00:00 -- -- -- -- -- -- -- -- --
2019-05-22 20:00:00 -- -- -- -- -- -- -- -- --
2019-05-22 19:00:00 -- -- -- -- -- -- -- -- --
2019-05-22 18:00:00 -- -- -- -- -- -- -- -- --
2019-05-22 17:00:00 -- -- -- -- -- -- -- -- --
2019-05-22 16:00:00 -- -- -- -- -- -- -- -- --
2019-05-22 15:00:00 -- -- -- -- -- -- -- -- --
2019-05-22 14:00:00 -- -- -- -- -- -- -- -- --
2019-05-22 13:00:00 -- -- -- -- -- -- -- -- --
2019-05-22 12:00:00 -- -- -- -- -- -- -- -- --
2019-05-22 11:00:00 -- -- -- -- -- -- -- -- --
2019-05-22 10:00:00 -- -- -- -- -- -- -- -- --
2019-05-22 09:00:00 -- -- -- -- -- -- -- -- --
2019-05-22 08:00:00 -- -- -- -- -- -- -- -- --
2019-05-22 07:00:00 -- -- -- -- -- -- -- -- --
2019-05-22 06:00:00 -- -- -- -- -- -- -- -- --
2019-05-22 05:00:00 -- -- -- -- -- -- -- -- --
2019-05-22 04:00:00 -- -- -- -- -- -- -- -- --
2019-05-22 03:00:00 -- -- -- -- -- -- -- -- --
2019-05-22 02:00:00 -- -- -- -- -- -- -- -- --
2019-05-22 01:00:00 -- -- -- -- -- -- -- -- --
2019-05-22 00:00:00 -- -- -- -- -- -- -- -- --
2019-05-21 23:00:00 -- -- -- -- -- -- -- -- --
2019-05-21 22:00:00 -- -- -- -- -- -- -- -- --
2019-05-21 21:00:00 -- -- -- -- -- -- -- -- --
2019-05-21 20:00:00 -- -- -- -- -- -- -- -- --
2019-05-21 19:00:00 -- -- -- -- -- -- -- -- --
2019-05-21 18:00:00 -- -- -- -- -- -- -- -- --
2019-05-21 17:00:00 -- -- -- -- -- -- -- -- --
2019-05-21 16:00:00 -- -- -- -- -- -- -- -- --
2019-05-21 15:00:00 -- -- -- -- -- -- -- -- --
2019-05-21 14:00:00 -- -- -- -- -- -- -- -- --
2019-05-21 13:00:00 -- -- -- -- -- -- -- -- --
2019-05-21 12:00:00 -- -- -- -- -- -- -- -- --
2019-05-21 11:00:00 -- -- -- -- -- -- -- -- --
2019-05-21 10:00:00 -- -- -- -- -- -- -- -- --
2019-05-21 09:00:00 -- -- -- -- -- -- -- -- --
2019-05-21 08:00:00 -- -- -- -- -- -- -- -- --
2019-05-21 07:00:00 -- -- -- -- -- -- -- -- --
2019-05-21 06:00:00 -- -- -- -- -- -- -- -- --
2019-05-21 05:00:00 -- -- -- -- -- -- -- -- --
2019-05-21 04:00:00 -- -- -- -- -- -- -- -- --
2019-05-21 03:00:00 -- -- -- -- -- -- -- -- --
2019-05-21 02:00:00 -- -- -- -- -- -- -- -- --
2019-05-21 01:00:00 -- -- -- -- -- -- -- -- --
2019-05-21 00:00:00 -- -- -- -- -- -- -- -- --
2019-05-20 23:00:00 -- -- -- -- -- -- -- -- --
2019-05-20 22:00:00 -- -- -- -- -- -- -- -- --
2019-05-20 21:00:00 -- -- -- -- -- -- -- -- --
2019-05-20 20:00:00 -- -- -- -- -- -- -- -- --
2019-05-20 19:00:00 -- -- -- -- -- -- -- -- --
2019-05-20 18:00:00 -- -- -- -- -- -- -- -- --
2019-05-20 17:00:00 -- -- -- -- -- -- -- -- --
2019-05-20 16:00:00 -- -- -- -- -- -- -- -- --
2019-05-20 15:00:00 -- -- -- -- -- -- -- -- --
2019-05-20 14:00:00 -- -- -- -- -- -- -- -- --
2019-05-20 13:00:00 -- -- -- -- -- -- -- -- --
2019-05-20 12:00:00 -- -- -- -- -- -- -- -- --
2019-05-20 11:00:00 -- -- -- -- -- -- -- -- --
2019-05-20 10:00:00 -- -- -- -- -- -- -- -- --
2019-05-20 09:00:00 -- -- -- -- -- -- -- -- --
2019-05-20 08:00:00 -- -- -- -- -- -- -- -- --
2019-05-20 07:00:00 -- -- -- -- -- -- -- -- --
2019-05-20 06:00:00 -- -- -- -- -- -- -- -- --
2019-05-20 05:00:00 -- -- -- -- -- -- -- -- --
2019-05-20 04:00:00 -- -- -- -- -- -- -- -- --
2019-05-20 03:00:00 -- -- -- -- -- -- -- -- --
2019-05-20 02:00:00 -- -- -- -- -- -- -- -- --
2019-05-20 01:00:00 -- -- -- -- -- -- -- -- --
2019-05-20 00:00:00 -- -- -- -- -- -- -- -- --
2019-05-19 23:00:00 -- -- -- -- -- -- -- -- --
2019-05-19 22:00:00 -- -- -- -- -- -- -- -- --
2019-05-19 21:00:00 -- -- -- -- -- -- -- -- --
2019-05-19 20:00:00 -- -- -- -- -- -- -- -- --
2019-05-19 19:00:00 -- -- -- -- -- -- -- -- --
2019-05-19 18:00:00 -- -- -- -- -- -- -- -- --
2019-05-19 17:00:00 -- -- -- -- -- -- -- -- --
2019-05-19 16:00:00 -- -- -- -- -- -- -- -- --
2019-05-19 15:00:00 -- -- -- -- -- -- -- -- --
2019-05-19 14:00:00 -- -- -- -- -- -- -- -- --
2019-05-19 13:00:00 -- -- -- -- -- -- -- -- --
2019-05-19 12:00:00 -- -- -- -- -- -- -- -- --
2019-05-19 11:00:00 -- -- -- -- -- -- -- -- --
2019-05-19 10:00:00 -- -- -- -- -- -- -- -- --
2019-05-19 09:00:00 -- -- -- -- -- -- -- -- --
2019-05-19 08:00:00 -- -- -- -- -- -- -- -- --
2019-05-19 07:00:00 -- -- -- -- -- -- -- -- --
2019-05-19 06:00:00 -- -- -- -- -- -- -- -- --
2019-05-19 05:00:00 -- -- -- -- -- -- -- -- --
2019-05-19 04:00:00 -- -- -- -- -- -- -- -- --
2019-05-19 03:00:00 -- -- -- -- -- -- -- -- --
2019-05-19 02:00:00 6.6 0 Calma 2 Oeste 0.8 -- -- 98
2019-05-19 01:00:00 6.5 0 Calma 3 Oeste 0.7 -- -- 98
2019-05-19 00:00:00 6.7 0 Calma 6 Norte 0.5 -- -- 97
2019-05-18 23:00:00 6.9 0 Calma 19 Norte 1 -- -- 94
2019-05-18 22:00:00 7.3 7 Noroeste 13 Noroeste 0 -- -- 91
2019-05-18 21:00:00 7.5 9 Noroeste 34 Norte 0.1 -- -- 82
2019-05-18 20:00:00 9 14 Noroeste 32 Norte 0 -- -- 72
2019-05-18 19:00:00 10.1 12 Noroeste 31 Norte 0 -- -- 68
2019-05-18 18:00:00 11.7 15 Noroeste 35 Noroeste 0 -- -- 63
2019-05-18 17:00:00 11.1 13 Noroeste 34 Noroeste 0 -- -- 66
2019-05-18 16:00:00 11.7 14 Noroeste 28 Noroeste 0 -- -- 63
2019-05-18 15:00:00 11.6 16 Noroeste 29 Norte 0 -- -- 63
2019-05-18 14:00:00 11.8 11 Noroeste 26 Oeste 0 -- -- 64
2019-05-18 13:00:00 10.8 4 Noroeste 20 Noroeste 0 -- -- 69
2019-05-18 12:00:00 11.2 7 Noroeste 17 Norte 0 -- -- 67
2019-05-18 11:00:00 10 7 Noroeste 15 Noroeste 0 -- -- 74
2019-05-18 10:00:00 9.9 9 Noroeste 18 Norte 0 -- -- 71
2019-05-18 09:00:00 8.5 7 Noroeste 17 Norte 0.1 -- -- 76
2019-05-18 08:00:00 7 9 Noroeste 15 Noroeste 0 -- -- 82
2019-05-18 07:00:00 5.8 7 Noroeste 23 Norte 0 -- -- 85
2019-05-18 06:00:00 6.4 13 Noroeste 29 Noroeste 0 -- -- 86
2019-05-18 05:00:00 6.7 9 Noroeste 29 Noroeste 0 -- -- 86
2019-05-18 04:00:00 7.2 14 Noroeste 31 Norte 0 -- -- 87
2019-05-18 03:00:00 7.5 9 Noroeste 21 Noroeste 0 -- -- 87
2019-05-18 02:00:00 7.7 12 Noroeste 26 Noroeste 0 -- -- 85
2019-05-18 01:00:00 7.4 10 Noroeste 26 Noroeste 0 -- -- 87
2019-05-18 00:00:00 7.9 11 Noroeste 24 Noroeste 0 -- -- 87
2019-05-17 23:00:00 8 12 Noroeste 26 Norte 0 -- -- 88
2019-05-17 22:00:00 8 14 Noroeste 33 Noroeste 0 -- -- 89
2019-05-17 21:00:00 8.8 12 Noroeste 29 Noroeste 0.1 -- -- 88
2019-05-17 20:00:00 9.2 14 Noroeste 30 Noroeste 0 -- -- 85
2019-05-17 19:00:00 9.6 13 Noroeste 32 Noroeste 0.1 -- -- 82
2019-05-17 18:00:00 10 17 Noroeste 32 Noroeste 0 -- -- 81
2019-05-17 17:00:00 10.6 16 Noroeste 39 Noroeste 0 -- -- 80
2019-05-17 16:00:00 10 19 Noroeste 45 Norte 0 -- -- 82
2019-05-17 15:00:00 9.8 21 Noroeste 42 Noroeste 0 -- -- 86
2019-05-17 14:00:00 9.3 15 Noroeste 36 Noroeste 0 -- -- 97
2019-05-17 13:00:00 8.8 15 Noroeste 34 Norte 1.2 -- -- 99
2019-05-17 12:00:00 8.9 6 Noroeste 17 Norte 0.6 -- -- 99
2019-05-17 11:00:00 8.8 5 Noroeste 18 Noroeste 1 -- -- 99
2019-05-17 10:00:00 8.3 4 Noroeste 19 Noroeste 1.6 -- -- 99
2019-05-17 09:00:00 7.6 7 Noroeste 18 Noroeste 2.9 -- -- 99
2019-05-17 08:00:00 7.3 8 Noroeste 23 Noroeste 4 -- -- 99
2019-05-17 07:00:00 7 15 Noroeste 30 Noroeste 6.9 -- -- 99
2019-05-17 06:00:00 7.5 10 Norte 26 Noroeste 5.9 -- -- 99
2019-05-17 05:00:00 7.7 8 Noroeste 34 Noroeste 6.7 -- -- 98
2019-05-17 04:00:00 7.7 13 Noroeste 34 Noroeste 8.6 -- -- 99
2019-05-17 03:00:00 9.4 12 Noroeste 31 Norte 9.5 -- -- 99
2019-05-17 02:00:00 10.5 12 Noroeste 26 Noroeste 0 -- -- 99
2019-05-17 01:00:00 11 15 Noroeste 23 Noroeste 3.2 -- -- 98
2019-05-17 00:00:00 11.4 0 Calma 21 Oeste 0 -- -- 98